createdAt,value
2023-05-21T00:00:00.000Z,32.0
2023-05-21T00:01:00.000Z,32.4
2023-05-21T00:02:00.000Z,32.2
2023-05-21T00:03:00.000Z,33.0
2023-05-21T00:04:00.000Z,34.1
2023-05-21T00:05:00.000Z,34.7
2023-05-21T00:06:00.000Z,34.6
2023-05-21T00:07:00.000Z,34.0
2023-05-21T00:08:00.000Z,33.9
2023-05-21T00:09:00.000Z,34.0
2023-05-21T00:10:00.000Z,34.3
2023-05-21T00:11:00.000Z,34.9
2023-05-21T00:12:00.000Z,34.7
2023-05-21T00:13:00.000Z,34.9
2023-05-21T00:14:00.000Z,32.7
2023-05-21T00:15:00.000Z,33.2
2023-05-21T00:16:00.000Z,34.9
2023-05-21T00:17:00.000Z,36.2
2023-05-21T00:18:00.000Z,36.8
2023-05-21T00:19:00.000Z,37.4
2023-05-21T00:20:00.000Z,36.9
2023-05-21T00:21:00.000Z,37.1
2023-05-21T00:22:00.000Z,37.6
2023-05-21T00:23:00.000Z,38.1
2023-05-21T00:24:00.000Z,38.7
2023-05-21T00:25:00.000Z,39.0
2023-05-21T00:26:00.000Z,38.6
2023-05-21T00:27:00.000Z,38.9
2023-05-21T00:28:00.000Z,38.9
2023-05-21T00:29:00.000Z,38.9
2023-05-21T00:30:00.000Z,39.3
2023-05-21T00:31:00.000Z,38.5
2023-05-21T00:32:00.000Z,38.5
2023-05-21T00:33:00.000Z,38.2
2023-05-21T00:34:00.000Z,38.5
2023-05-21T00:35:00.000Z,38.4
2023-05-21T00:36:00.000Z,39.1
2023-05-21T00:37:00.000Z,38.8
2023-05-21T00:38:00.000Z,38.7
2023-05-21T00:39:00.000Z,37.9
2023-05-21T00:40:00.000Z,37.3
2023-05-21T00:41:00.000Z,37.8
2023-05-21T00:42:00.000Z,37.7
2023-05-21T00:43:00.000Z,38.6
2023-05-21T00:44:00.000Z,37.6
2023-05-21T00:45:00.000Z,37.7
2023-05-21T00:46:00.000Z,38.0
2023-05-21T00:47:00.000Z,38.7
2023-05-21T00:48:00.000Z,38.6
2023-05-21T00:49:00.000Z,38.8
2023-05-21T00:50:00.000Z,38.9
2023-05-21T00:51:00.000Z,39.2
2023-05-21T00:52:00.000Z,39.6
2023-05-21T00:53:00.000Z,41.3
2023-05-21T00:54:00.000Z,41.5
2023-05-21T00:55:00.000Z,41.4
2023-05-21T00:56:00.000Z,40.8
2023-05-21T00:57:00.000Z,41.2
2023-05-21T00:58:00.000Z,41.4
2023-05-21T00:59:00.000Z,41.1
2023-05-21T01:00:00.000Z,40.6
2023-05-21T01:01:00.000Z,41.2
2023-05-21T01:02:00.000Z,42.9
2023-05-21T01:03:00.000Z,44.8
2023-05-21T01:04:00.000Z,45.5
2023-05-21T01:05:00.000Z,45.2
2023-05-21T01:06:00.000Z,45.2
2023-05-21T01:07:00.000Z,45.4
2023-05-21T01:08:00.000Z,45.9
2023-05-21T01:09:00.000Z,45.8
2023-05-21T01:10:00.000Z,45.7
2023-05-21T01:11:00.000Z,46.0
2023-05-21T01:12:00.000Z,45.9
2023-05-21T01:13:00.000Z,46.5
2023-05-21T01:14:00.000Z,46.4
2023-05-21T01:15:00.000Z,46.8
2023-05-21T01:16:00.000Z,47.0
2023-05-21T01:17:00.000Z,47.9
2023-05-21T01:18:00.000Z,48.5
2023-05-21T01:19:00.000Z,48.8
2023-05-21T01:20:00.000Z,48.8
2023-05-21T01:21:00.000Z,50.1
2023-05-21T01:22:00.000Z,51.3
2023-05-21T01:23:00.000Z,51.6
2023-05-21T01:24:00.000Z,51.0
2023-05-21T01:25:00.000Z,50.8
2023-05-21T01:26:00.000Z,50.0
2023-05-21T01:27:00.000Z,50.3
2023-05-21T01:28:00.000Z,50.5
2023-05-21T01:29:00.000Z,51.0
2023-05-21T01:30:00.000Z,50.8
2023-05-21T01:31:00.000Z,50.1
2023-05-21T01:32:00.000Z,50.8
2023-05-21T01:33:00.000Z,51.9
2023-05-21T01:34:00.000Z,53.2
2023-05-21T01:35:00.000Z,53.6
2023-05-21T01:36:00.000Z,52.3
2023-05-21T01:37:00.000Z,49.6
2023-05-21T01:38:00.000Z,49.3
2023-05-21T01:39:00.000Z,53.4
2023-05-21T01:40:00.000Z,56.4
2023-05-21T01:41:00.000Z,56.8
2023-05-21T01:42:00.000Z,56.9
2023-05-21T01:43:00.000Z,57.0
2023-05-21T01:44:00.000Z,56.9
2023-05-21T01:45:00.000Z,56.7
2023-05-21T01:47:00.000Z,58.2
2023-05-21T01:48:00.000Z,59.8
2023-05-21T01:49:00.000Z,61.0
2023-05-21T01:50:00.000Z,62.1
2023-05-21T01:51:00.000Z,58.7
2023-05-21T01:52:00.000Z,57.3
2023-05-21T01:53:00.000Z,56.7
2023-05-21T01:54:00.000Z,59.8
2023-05-21T01:55:00.000Z,62.7
2023-05-21T01:57:00.000Z,64.4
2023-05-21T01:58:00.000Z,64.7
2023-05-21T01:59:00.000Z,64.5
2023-05-21T02:00:00.000Z,64.3
2023-05-21T02:01:00.000Z,64.0
2023-05-21T02:02:00.000Z,64.3
2023-05-21T02:03:00.000Z,64.6
2023-05-21T02:04:00.000Z,65.0
2023-05-21T02:05:00.000Z,64.6
2023-05-21T02:07:00.000Z,59.3
2023-05-21T02:08:00.000Z,61.2
2023-05-21T02:09:00.000Z,63.8
2023-05-21T02:10:00.000Z,66.3
2023-05-21T02:11:00.000Z,68.2
2023-05-21T02:12:00.000Z,71.5
2023-05-21T02:13:00.000Z,73.0
2023-05-21T02:14:00.000Z,71.8
2023-05-21T02:15:00.000Z,70.7
2023-05-21T02:17:00.000Z,70.2
2023-05-21T02:18:00.000Z,71.1
2023-05-21T02:19:00.000Z,71.4
2023-05-21T02:20:00.000Z,71.5
2023-05-21T02:21:00.000Z,67.9
2023-05-21T02:22:00.000Z,66.1
2023-05-21T02:23:00.000Z,64.9
2023-05-21T02:24:00.000Z,66.7
2023-05-21T02:25:00.000Z,69.4
2023-05-21T02:26:00.000Z,72.2
2023-05-21T02:27:00.000Z,74.6
2023-05-21T02:28:00.000Z,77.8
2023-05-21T02:29:00.000Z,79.1
2023-05-21T02:30:00.000Z,79.2
2023-05-21T02:31:00.000Z,80.2
2023-05-21T02:32:00.000Z,79.7
2023-05-21T02:33:00.000Z,78.6
2023-05-21T02:34:00.000Z,76.9
2023-05-21T02:35:00.000Z,77.6
2023-05-21T02:36:00.000Z,75.1
2023-05-21T02:37:00.000Z,75.8
2023-05-21T02:38:00.000Z,76.3
2023-05-21T02:39:00.000Z,78.4
2023-05-21T02:40:00.000Z,79.5
2023-05-21T02:41:00.000Z,79.2
2023-05-21T02:42:00.000Z,79.3
2023-05-21T02:43:00.000Z,80.6
2023-05-21T02:44:00.000Z,81.6
2023-05-21T02:45:00.000Z,82.9
2023-05-21T02:46:00.000Z,82.6
2023-05-21T02:47:00.000Z,81.4
2023-05-21T02:48:00.000Z,80.7
2023-05-21T02:49:00.000Z,80.7
2023-05-21T02:50:00.000Z,82.8
2023-05-21T02:51:00.000Z,84.9
2023-05-21T02:52:00.000Z,84.9
2023-05-21T02:53:00.000Z,80.1
2023-05-21T02:54:00.000Z,78.0
2023-05-21T02:55:00.000Z,77.9
2023-05-21T02:56:00.000Z,79.6
2023-05-21T02:57:00.000Z,80.5
2023-05-21T02:58:00.000Z,81.1
2023-05-21T02:59:00.000Z,82.3
2023-05-21T03:00:00.000Z,83.5
2023-05-21T03:01:00.000Z,86.1
2023-05-21T03:02:00.000Z,88.4
2023-05-21T03:03:00.000Z,88.2
2023-05-21T03:04:00.000Z,88.4
2023-05-21T03:05:00.000Z,87.7
2023-05-21T03:06:00.000Z,86.9
2023-05-21T03:07:00.000Z,85.9
2023-05-21T03:08:00.000Z,84.5
2023-05-21T03:09:00.000Z,83.8
2023-05-21T03:10:00.000Z,82.2
2023-05-21T03:11:00.000Z,80.8
2023-05-21T03:12:00.000Z,78.0
2023-05-21T03:13:00.000Z,77.0
2023-05-21T03:14:00.000Z,77.1
2023-05-21T03:15:00.000Z,77.6
2023-05-21T03:16:00.000Z,77.5
2023-05-21T03:17:00.000Z,78.0
2023-05-21T03:18:00.000Z,78.4
2023-05-21T03:19:00.000Z,80.9
2023-05-21T03:20:00.000Z,82.4
2023-05-21T03:21:00.000Z,82.6
2023-05-21T03:22:00.000Z,82.3
2023-05-21T03:23:00.000Z,81.9
2023-05-21T03:24:00.000Z,81.5
2023-05-21T03:25:00.000Z,81.4
2023-05-21T03:26:00.000Z,81.9
2023-05-21T03:27:00.000Z,81.3
2023-05-21T03:28:00.000Z,80.2
2023-05-21T03:29:00.000Z,78.8
2023-05-21T03:30:00.000Z,78.1
2023-05-21T03:31:00.000Z,76.6
2023-05-21T03:32:00.000Z,75.8
2023-05-21T03:33:00.000Z,70.7
2023-05-21T03:34:00.000Z,70.6
2023-05-21T03:35:00.000Z,71.2
2023-05-21T03:36:00.000Z,73.8
2023-05-21T03:37:00.000Z,74.3
2023-05-21T03:38:00.000Z,75.9
2023-05-21T03:39:00.000Z,77.3
2023-05-21T03:40:00.000Z,79.0
2023-05-21T03:41:00.000Z,80.1
2023-05-21T03:42:00.000Z,80.8
2023-05-21T03:43:00.000Z,81.3
2023-05-21T03:44:00.000Z,80.9
2023-05-21T03:45:00.000Z,81.7
2023-05-21T03:46:00.000Z,81.4
2023-05-21T03:47:00.000Z,82.4
2023-05-21T03:48:00.000Z,83.7
2023-05-21T03:49:00.000Z,83.2
2023-05-21T03:50:00.000Z,82.5
2023-05-21T03:51:00.000Z,82.6
2023-05-21T03:52:00.000Z,82.0
2023-05-21T03:53:00.000Z,81.6
2023-05-21T03:54:00.000Z,79.3
2023-05-21T03:55:00.000Z,78.6
2023-05-21T03:56:00.000Z,78.9
2023-05-21T03:57:00.000Z,78.0
2023-05-21T03:58:00.000Z,78.1
2023-05-21T03:59:00.000Z,76.7
2023-05-21T04:00:00.000Z,74.3
2023-05-21T04:01:00.000Z,71.9
2023-05-21T04:02:00.000Z,73.6
2023-05-21T04:03:00.000Z,74.1
2023-05-21T04:04:00.000Z,74.7
2023-05-21T04:05:00.000Z,76.6
2023-05-21T04:06:00.000Z,78.2
2023-05-21T04:07:00.000Z,79.8
2023-05-21T04:08:00.000Z,81.2
2023-05-21T04:09:00.000Z,82.1
2023-05-21T04:10:00.000Z,82.7
2023-05-21T04:11:00.000Z,82.6
2023-05-21T04:12:00.000Z,83.4
2023-05-21T04:13:00.000Z,85.5
2023-05-21T04:14:00.000Z,88.2
2023-05-21T04:15:00.000Z,90.2
2023-05-21T04:16:00.000Z,90.0
2023-05-21T04:17:00.000Z,90.5
2023-05-21T04:18:00.000Z,92.1
2023-05-21T04:19:00.000Z,92.4
2023-05-21T04:20:00.000Z,92.8
2023-05-21T04:21:00.000Z,91.5
2023-05-21T04:22:00.000Z,90.7
2023-05-21T04:23:00.000Z,89.8
2023-05-21T04:24:00.000Z,90.0
2023-05-21T04:25:00.000Z,90.1
2023-05-21T04:26:00.000Z,90.5
2023-05-21T04:27:00.000Z,90.2
2023-05-21T04:28:00.000Z,90.5
2023-05-21T04:29:00.000Z,90.0
2023-05-21T04:30:00.000Z,90.7
2023-05-21T04:31:00.000Z,91.7
2023-05-21T04:32:00.000Z,94.6
2023-05-21T04:33:00.000Z,97.9
2023-05-21T04:34:00.000Z,100.7
2023-05-21T04:35:00.000Z,103.0
2023-05-21T04:36:00.000Z,104.6
2023-05-21T04:37:00.000Z,103.6
2023-05-21T04:38:00.000Z,103.4
2023-05-21T04:39:00.000Z,102.4
2023-05-21T04:40:00.000Z,101.9
2023-05-21T04:41:00.000Z,103.4
2023-05-21T04:42:00.000Z,105.6
2023-05-21T04:43:00.000Z,109.0
2023-05-21T04:44:00.000Z,109.7
2023-05-21T04:45:00.000Z,108.9
2023-05-21T04:46:00.000Z,106.7
2023-05-21T04:47:00.000Z,105.8
2023-05-21T04:48:00.000Z,104.9
2023-05-21T04:49:00.000Z,104.8
2023-05-21T04:50:00.000Z,103.7
2023-05-21T04:51:00.000Z,103.0
2023-05-21T04:52:00.000Z,101.5
2023-05-21T04:53:00.000Z,102.0
2023-05-21T04:54:00.000Z,101.6
2023-05-21T04:55:00.000Z,100.2
2023-05-21T04:56:00.000Z,101.0
2023-05-21T04:57:00.000Z,101.5
2023-05-21T04:58:00.000Z,102.8
2023-05-21T04:59:00.000Z,102.7
2023-05-21T05:00:00.000Z,102.0
2023-05-21T05:01:00.000Z,101.6
2023-05-21T05:02:00.000Z,100.9
2023-05-21T05:03:00.000Z,101.5
2023-05-21T05:04:00.000Z,101.5
2023-05-21T05:05:00.000Z,101.4
2023-05-21T05:06:00.000Z,102.2
2023-05-21T05:07:00.000Z,101.2
2023-05-21T05:08:00.000Z,101.4
2023-05-21T05:09:00.000Z,100.4
2023-05-21T05:10:00.000Z,99.2
2023-05-21T05:11:00.000Z,99.5
2023-05-21T05:12:00.000Z,99.0
2023-05-21T05:13:00.000Z,97.6
2023-05-21T05:14:00.000Z,95.4
2023-05-21T05:15:00.000Z,94.9
2023-05-21T05:16:00.000Z,95.3
2023-05-21T05:17:00.000Z,95.2
2023-05-21T05:18:00.000Z,96.0
2023-05-21T05:19:00.000Z,99.2
2023-05-21T05:20:00.000Z,102.6
2023-05-21T05:21:00.000Z,105.4
2023-05-21T05:22:00.000Z,103.9
2023-05-21T05:23:00.000Z,102.6
2023-05-21T05:24:00.000Z,101.2
2023-05-21T05:25:00.000Z,101.9
2023-05-21T05:26:00.000Z,101.7
2023-05-21T05:27:00.000Z,101.7
2023-05-21T05:28:00.000Z,100.6
2023-05-21T05:29:00.000Z,101.4
2023-05-21T05:30:00.000Z,102.4
2023-05-21T05:31:00.000Z,102.4
2023-05-21T05:32:00.000Z,100.9
2023-05-21T05:33:00.000Z,100.0
2023-05-21T05:34:00.000Z,99.2
2023-05-21T05:35:00.000Z,99.1
2023-05-21T05:36:00.000Z,99.5
2023-05-21T05:37:00.000Z,100.4
2023-05-21T05:38:00.000Z,102.4
2023-05-21T05:39:00.000Z,104.5
2023-05-21T05:40:00.000Z,105.3
2023-05-21T05:41:00.000Z,106.9
2023-05-21T05:42:00.000Z,107.4
2023-05-21T05:43:00.000Z,105.8
2023-05-21T05:44:00.000Z,104.4
2023-05-21T05:45:00.000Z,103.1
2023-05-21T05:46:00.000Z,103.8
2023-05-21T05:47:00.000Z,101.9
2023-05-21T05:48:00.000Z,100.8
2023-05-21T05:49:00.000Z,100.4
2023-05-21T05:50:00.000Z,101.1
2023-05-21T05:51:00.000Z,101.8
2023-05-21T05:52:00.000Z,103.3
2023-05-21T05:53:00.000Z,102.5
2023-05-21T05:54:00.000Z,102.2
2023-05-21T05:55:00.000Z,101.6
2023-05-21T05:56:00.000Z,102.7
2023-05-21T05:57:00.000Z,103.8
2023-05-21T05:58:00.000Z,103.8
2023-05-21T05:59:00.000Z,101.9
2023-05-21T06:00:00.000Z,99.7
2023-05-21T06:01:00.000Z,96.2
2023-05-21T06:02:00.000Z,95.0
2023-05-21T06:03:00.000Z,94.1
2023-05-21T06:04:00.000Z,94.1
2023-05-21T06:05:00.000Z,87.7
2023-05-21T06:06:00.000Z,87.0
2023-05-21T06:07:00.000Z,88.1
2023-05-21T06:08:00.000Z,90.2
2023-05-21T06:09:00.000Z,91.0
2023-05-21T06:10:00.000Z,92.1
2023-05-21T06:11:00.000Z,91.4
2023-05-21T06:12:00.000Z,92.2
2023-05-21T06:13:00.000Z,93.0
2023-05-21T06:14:00.000Z,93.9
2023-05-21T06:15:00.000Z,95.3
2023-05-21T06:16:00.000Z,94.2
2023-05-21T06:17:00.000Z,93.8
2023-05-21T06:18:00.000Z,94.1
2023-05-21T06:19:00.000Z,97.4
2023-05-21T06:20:00.000Z,99.1
2023-05-21T06:21:00.000Z,99.2
2023-05-21T06:22:00.000Z,100.4
2023-05-21T06:23:00.000Z,100.3
2023-05-21T06:24:00.000Z,100.3
2023-05-21T06:25:00.000Z,98.9
2023-05-21T06:26:00.000Z,98.8
2023-05-21T06:27:00.000Z,99.6
2023-05-21T06:28:00.000Z,101.9
2023-05-21T06:29:00.000Z,103.1
2023-05-21T06:30:00.000Z,102.5
2023-05-21T06:31:00.000Z,98.5
2023-05-21T06:32:00.000Z,95.3
2023-05-21T06:33:00.000Z,94.7
2023-05-21T06:34:00.000Z,93.6
2023-05-21T06:35:00.000Z,92.0
2023-05-21T06:36:00.000Z,90.3
2023-05-21T06:37:00.000Z,88.4
2023-05-21T06:38:00.000Z,85.1
2023-05-21T06:39:00.000Z,84.8
2023-05-21T06:40:00.000Z,85.4
2023-05-21T06:41:00.000Z,86.6
2023-05-21T06:43:00.000Z,89.9
2023-05-21T06:44:00.000Z,92.6
2023-05-21T06:45:00.000Z,92.9
2023-05-21T06:46:00.000Z,93.3
2023-05-21T06:47:00.000Z,94.0
2023-05-21T06:48:00.000Z,93.0
2023-05-21T06:49:00.000Z,94.0
2023-05-21T06:51:00.000Z,94.2
2023-05-21T06:53:00.000Z,87.1
2023-05-21T06:54:00.000Z,86.0
2023-05-21T06:55:00.000Z,86.3
2023-05-21T06:56:00.000Z,88.0
2023-05-21T06:57:00.000Z,91.3
2023-05-21T06:58:00.000Z,94.1
2023-05-21T06:59:00.000Z,95.5
2023-05-21T07:00:00.000Z,95.1
2023-05-21T07:01:00.000Z,95.1
2023-05-21T07:02:00.000Z,94.7
2023-05-21T07:03:00.000Z,96.3
2023-05-21T07:04:00.000Z,98.0
2023-05-21T07:05:00.000Z,98.8
2023-05-21T07:06:00.000Z,96.6
2023-05-21T07:07:00.000Z,94.8
2023-05-21T07:08:00.000Z,91.6
2023-05-21T07:09:00.000Z,88.1
2023-05-21T07:11:00.000Z,87.4
2023-05-21T07:12:00.000Z,90.4
2023-05-21T07:13:00.000Z,94.1
2023-05-21T07:14:00.000Z,96.3
2023-05-21T07:15:00.000Z,98.2
2023-05-21T07:16:00.000Z,98.7
2023-05-21T07:17:00.000Z,99.3
2023-05-21T07:18:00.000Z,98.3
2023-05-21T07:19:00.000Z,99.1
2023-05-21T07:20:00.000Z,100.6
2023-05-21T07:21:00.000Z,101.5
2023-05-21T07:22:00.000Z,102.7
2023-05-21T07:23:00.000Z,104.0
2023-05-21T07:24:00.000Z,103.4
2023-05-21T07:26:00.000Z,101.5
2023-05-21T07:27:00.000Z,100.7
2023-05-21T07:28:00.000Z,100.0
2023-05-21T07:29:00.000Z,99.4
2023-05-21T07:30:00.000Z,99.7
2023-05-21T07:31:00.000Z,99.8
2023-05-21T07:32:00.000Z,96.4
2023-05-21T07:33:00.000Z,94.6
2023-05-21T07:34:00.000Z,94.1
2023-05-21T07:35:00.000Z,92.9
2023-05-21T07:36:00.000Z,92.8
2023-05-21T07:37:00.000Z,92.0
2023-05-21T07:38:00.000Z,94.0
2023-05-21T07:39:00.000Z,95.2
2023-05-21T07:40:00.000Z,96.8
2023-05-21T07:41:00.000Z,97.5
2023-05-21T07:42:00.000Z,97.9
2023-05-21T07:43:00.000Z,98.1
2023-05-21T07:44:00.000Z,99.0
2023-05-21T07:45:00.000Z,98.0
2023-05-21T07:46:00.000Z,96.8
2023-05-21T07:47:00.000Z,96.6
2023-05-21T07:48:00.000Z,95.9
2023-05-21T07:49:00.000Z,95.5
2023-05-21T07:50:00.000Z,94.7
2023-05-21T07:51:00.000Z,93.6
2023-05-21T07:52:00.000Z,94.1
2023-05-21T07:53:00.000Z,94.3
2023-05-21T07:54:00.000Z,94.1
2023-05-21T07:55:00.000Z,92.9
2023-05-21T07:56:00.000Z,90.6
2023-05-21T07:57:00.000Z,90.3
2023-05-21T07:58:00.000Z,89.8
2023-05-21T07:59:00.000Z,90.6
2023-05-21T08:00:00.000Z,89.5
2023-05-21T08:01:00.000Z,89.3
2023-05-21T08:02:00.000Z,84.7
2023-05-21T08:03:00.000Z,81.2
2023-05-21T08:04:00.000Z,81.8
2023-05-21T08:05:00.000Z,82.2
2023-05-21T08:06:00.000Z,82.5
2023-05-21T08:07:00.000Z,83.4
2023-05-21T08:08:00.000Z,83.0
2023-05-21T08:09:00.000Z,84.1
2023-05-21T08:10:00.000Z,82.9
2023-05-21T08:11:00.000Z,82.2
2023-05-21T08:12:00.000Z,83.4
2023-05-21T08:13:00.000Z,84.4
2023-05-21T08:14:00.000Z,83.5
2023-05-21T08:15:00.000Z,83.1
2023-05-21T08:16:00.000Z,82.0
2023-05-21T08:17:00.000Z,83.1
2023-05-21T08:18:00.000Z,83.1
2023-05-21T08:19:00.000Z,82.2
2023-05-21T08:20:00.000Z,76.0
2023-05-21T08:21:00.000Z,72.9
2023-05-21T08:22:00.000Z,72.5
2023-05-21T08:23:00.000Z,73.6
2023-05-21T08:24:00.000Z,75.1
2023-05-21T08:25:00.000Z,76.2
2023-05-21T08:26:00.000Z,76.9
2023-05-21T08:27:00.000Z,78.4
2023-05-21T08:28:00.000Z,80.8
2023-05-21T08:29:00.000Z,81.0
2023-05-21T08:30:00.000Z,80.2
2023-05-21T08:31:00.000Z,80.3
2023-05-21T08:32:00.000Z,80.2
2023-05-21T08:33:00.000Z,81.1
2023-05-21T08:34:00.000Z,82.1
2023-05-21T08:35:00.000Z,82.7
2023-05-21T08:36:00.000Z,83.7
2023-05-21T08:37:00.000Z,84.5
2023-05-21T08:38:00.000Z,83.4
2023-05-21T08:39:00.000Z,83.5
2023-05-21T08:40:00.000Z,82.3
2023-05-21T08:41:00.000Z,80.1
2023-05-21T08:42:00.000Z,76.1
2023-05-21T08:43:00.000Z,75.9
2023-05-21T08:44:00.000Z,78.6
2023-05-21T08:45:00.000Z,82.4
2023-05-21T08:46:00.000Z,85.2
2023-05-21T08:47:00.000Z,85.6
2023-05-21T08:48:00.000Z,85.5
2023-05-21T08:49:00.000Z,85.4
2023-05-21T08:50:00.000Z,84.9
2023-05-21T08:51:00.000Z,84.4
2023-05-21T08:52:00.000Z,84.4
2023-05-21T08:53:00.000Z,84.4
2023-05-21T08:54:00.000Z,84.8
2023-05-21T08:55:00.000Z,80.1
2023-05-21T08:56:00.000Z,76.9
2023-05-21T08:57:00.000Z,77.3
2023-05-21T08:58:00.000Z,81.1
2023-05-21T08:59:00.000Z,82.7
2023-05-21T09:00:00.000Z,84.9
2023-05-21T09:01:00.000Z,85.0
2023-05-21T09:02:00.000Z,85.0
2023-05-21T09:03:00.000Z,85.6
2023-05-21T09:04:00.000Z,85.8
2023-05-21T09:05:00.000Z,87.1
2023-05-21T09:06:00.000Z,81.3
2023-05-21T09:07:00.000Z,80.7
2023-05-21T09:08:00.000Z,82.0
2023-05-21T09:09:00.000Z,87.0
2023-05-21T09:10:00.000Z,90.3
2023-05-21T09:11:00.000Z,90.7
2023-05-21T09:12:00.000Z,90.6
2023-05-21T09:13:00.000Z,90.3
2023-05-21T09:14:00.000Z,91.3
2023-05-21T09:15:00.000Z,92.0
2023-05-21T09:16:00.000Z,92.6
2023-05-21T09:17:00.000Z,92.6
2023-05-21T09:18:00.000Z,91.5
2023-05-21T09:19:00.000Z,87.4
2023-05-21T09:20:00.000Z,81.4
2023-05-21T09:21:00.000Z,79.4
2023-05-21T09:22:00.000Z,81.6
2023-05-21T09:23:00.000Z,82.7
2023-05-21T09:24:00.000Z,85.7
2023-05-21T09:25:00.000Z,86.9
2023-05-21T09:26:00.000Z,87.9
2023-05-21T09:27:00.000Z,88.7
2023-05-21T09:28:00.000Z,88.4
2023-05-21T09:29:00.000Z,88.6
2023-05-21T09:30:00.000Z,88.7
2023-05-21T09:31:00.000Z,88.5
2023-05-21T09:32:00.000Z,82.1
2023-05-21T09:33:00.000Z,79.6
2023-05-21T09:34:00.000Z,82.0
2023-05-21T09:35:00.000Z,84.0
2023-05-21T09:36:00.000Z,85.3
2023-05-21T09:37:00.000Z,85.7
2023-05-21T09:38:00.000Z,87.6
2023-05-21T09:39:00.000Z,86.8
2023-05-21T09:40:00.000Z,86.2
2023-05-21T09:41:00.000Z,85.8
2023-05-21T09:43:00.000Z,84.2
2023-05-21T09:44:00.000Z,78.8
2023-05-21T09:45:00.000Z,78.4
2023-05-21T09:46:00.000Z,82.9
2023-05-21T09:47:00.000Z,86.4
2023-05-21T09:48:00.000Z,88.3
2023-05-21T09:49:00.000Z,88.0
2023-05-21T09:50:00.000Z,88.0
2023-05-21T09:51:00.000Z,88.1
2023-05-21T09:53:00.000Z,88.2
2023-05-21T09:54:00.000Z,87.0
2023-05-21T09:55:00.000Z,85.3
2023-05-21T09:56:00.000Z,85.0
2023-05-21T09:57:00.000Z,85.0
2023-05-21T09:58:00.000Z,84.9
2023-05-21T09:59:00.000Z,85.7
2023-05-21T10:01:00.000Z,86.7
2023-05-21T10:02:00.000Z,86.5
2023-05-21T10:03:00.000Z,85.5
2023-05-21T10:04:00.000Z,85.2
2023-05-21T10:06:00.000Z,83.5
2023-05-21T10:07:00.000Z,84.7
2023-05-21T10:08:00.000Z,84.1
2023-05-21T10:09:00.000Z,84.9
2023-05-21T10:11:00.000Z,85.2
2023-05-21T10:12:00.000Z,85.7
2023-05-21T10:13:00.000Z,85.3
2023-05-21T10:14:00.000Z,82.7
2023-05-21T10:16:00.000Z,80.2
2023-05-21T10:17:00.000Z,80.6
2023-05-21T10:18:00.000Z,81.3
2023-05-21T10:19:00.000Z,80.5
2023-05-21T10:21:00.000Z,70.6
2023-05-21T10:22:00.000Z,72.0
2023-05-21T10:23:00.000Z,75.7
2023-05-21T10:24:00.000Z,78.6
2023-05-21T10:25:00.000Z,79.7
2023-05-21T10:26:00.000Z,79.9
2023-05-21T10:27:00.000Z,79.2
2023-05-21T10:28:00.000Z,79.3
2023-05-21T10:29:00.000Z,79.1
2023-05-21T10:30:00.000Z,74.6
2023-05-21T10:31:00.000Z,71.8
2023-05-21T10:32:00.000Z,73.6
2023-05-21T10:33:00.000Z,75.3
2023-05-21T10:34:00.000Z,77.0
2023-05-21T10:35:00.000Z,78.2
2023-05-21T10:36:00.000Z,79.8
2023-05-21T10:37:00.000Z,80.3
2023-05-21T10:38:00.000Z,79.9
2023-05-21T10:39:00.000Z,78.9
2023-05-21T10:40:00.000Z,77.6
2023-05-21T10:41:00.000Z,78.2
2023-05-21T10:42:00.000Z,78.2
2023-05-21T10:43:00.000Z,78.6
2023-05-21T10:44:00.000Z,76.7
2023-05-21T10:45:00.000Z,75.8
2023-05-21T10:46:00.000Z,76.4
2023-05-21T10:47:00.000Z,77.9
2023-05-21T10:48:00.000Z,78.9
2023-05-21T10:49:00.000Z,77.8
2023-05-21T10:50:00.000Z,77.0
2023-05-21T10:51:00.000Z,76.9
2023-05-21T10:52:00.000Z,75.2
2023-05-21T10:53:00.000Z,68.7
2023-05-21T10:54:00.000Z,69.3
2023-05-21T10:55:00.000Z,73.2
2023-05-21T10:56:00.000Z,75.2
2023-05-21T10:57:00.000Z,76.1
2023-05-21T10:58:00.000Z,77.4
2023-05-21T10:59:00.000Z,77.6
2023-05-21T11:00:00.000Z,78.0
2023-05-21T11:01:00.000Z,76.9
2023-05-21T11:02:00.000Z,77.0
2023-05-21T11:03:00.000Z,77.0
2023-05-21T11:04:00.000Z,77.1
2023-05-21T11:05:00.000Z,78.0
2023-05-21T11:06:00.000Z,77.4
2023-05-21T11:07:00.000Z,75.6
2023-05-21T11:08:00.000Z,73.6
2023-05-21T11:09:00.000Z,71.6
2023-05-21T11:10:00.000Z,71.7
2023-05-21T11:11:00.000Z,71.8
2023-05-21T11:12:00.000Z,73.1
2023-05-21T11:13:00.000Z,73.6
2023-05-21T11:14:00.000Z,70.4
2023-05-21T11:15:00.000Z,65.3
2023-05-21T11:16:00.000Z,68.0
2023-05-21T11:17:00.000Z,70.9
2023-05-21T11:18:00.000Z,73.4
2023-05-21T11:20:00.000Z,73.4
2023-05-21T11:21:00.000Z,73.4
2023-05-21T11:23:00.000Z,73.7
2023-05-21T11:24:00.000Z,73.8
2023-05-21T11:25:00.000Z,74.1
2023-05-21T11:26:00.000Z,68.0
2023-05-21T11:28:00.000Z,67.2
2023-05-21T11:29:00.000Z,67.6
2023-05-21T11:30:00.000Z,69.4
2023-05-21T11:31:00.000Z,70.5
2023-05-21T11:32:00.000Z,71.7
2023-05-21T11:33:00.000Z,69.4
2023-05-21T11:34:00.000Z,69.4
2023-05-21T11:36:00.000Z,71.2
2023-05-21T11:37:00.000Z,72.1
2023-05-21T11:38:00.000Z,71.2
2023-05-21T11:39:00.000Z,69.4
2023-05-21T11:40:00.000Z,68.3
2023-05-21T11:41:00.000Z,68.4
2023-05-21T11:42:00.000Z,67.3
2023-05-21T11:43:00.000Z,67.2
2023-05-21T11:44:00.000Z,66.0
2023-05-21T11:45:00.000Z,66.9
2023-05-21T11:46:00.000Z,62.6
2023-05-21T11:47:00.000Z,62.0
2023-05-21T11:49:00.000Z,66.1
2023-05-21T11:50:00.000Z,66.5
2023-05-21T11:51:00.000Z,67.0
2023-05-21T11:52:00.000Z,67.4
2023-05-21T11:53:00.000Z,67.6
2023-05-21T11:54:00.000Z,66.3
2023-05-21T11:55:00.000Z,65.2
2023-05-21T11:56:00.000Z,64.6
2023-05-21T11:57:00.000Z,65.2
2023-05-21T11:58:00.000Z,65.4
2023-05-21T11:59:00.000Z,65.8
2023-05-21T12:00:00.000Z,65.2
2023-05-21T12:01:00.000Z,65.3
2023-05-21T12:02:00.000Z,64.9
2023-05-21T12:03:00.000Z,65.1
2023-05-21T12:04:00.000Z,64.4
2023-05-21T12:05:00.000Z,64.3
2023-05-21T12:06:00.000Z,63.5
2023-05-21T12:07:00.000Z,64.3
2023-05-21T12:08:00.000Z,63.9
2023-05-21T12:09:00.000Z,64.2
2023-05-21T12:10:00.000Z,64.5
2023-05-21T12:11:00.000Z,64.4
2023-05-21T12:12:00.000Z,64.2
2023-05-21T12:13:00.000Z,63.6
2023-05-21T12:14:00.000Z,62.5
2023-05-21T12:15:00.000Z,62.5
2023-05-21T12:16:00.000Z,59.0
2023-05-21T12:17:00.000Z,56.2
2023-05-21T12:18:00.000Z,58.6
2023-05-21T12:19:00.000Z,60.4
2023-05-21T12:20:00.000Z,63.1
2023-05-21T12:21:00.000Z,64.1
2023-05-21T12:22:00.000Z,66.4
2023-05-21T12:23:00.000Z,69.0
2023-05-21T12:24:00.000Z,69.0
2023-05-21T12:25:00.000Z,68.4
2023-05-21T12:26:00.000Z,63.8
2023-05-21T12:27:00.000Z,62.5
2023-05-21T12:28:00.000Z,61.7
2023-05-21T12:29:00.000Z,61.9
2023-05-21T12:30:00.000Z,62.2
2023-05-21T12:31:00.000Z,61.4
2023-05-21T12:32:00.000Z,61.4
2023-05-21T12:33:00.000Z,60.0
2023-05-21T12:34:00.000Z,59.3
2023-05-21T12:35:00.000Z,55.5
2023-05-21T12:36:00.000Z,54.3
2023-05-21T12:37:00.000Z,57.3
2023-05-21T12:38:00.000Z,59.7
2023-05-21T12:39:00.000Z,61.0
2023-05-21T12:40:00.000Z,62.2
2023-05-21T12:41:00.000Z,61.9
2023-05-21T12:42:00.000Z,61.8
2023-05-21T12:43:00.000Z,61.6
2023-05-21T12:44:00.000Z,61.2
2023-05-21T12:45:00.000Z,60.4
2023-05-21T12:46:00.000Z,60.8
2023-05-21T12:47:00.000Z,60.9
2023-05-21T12:48:00.000Z,56.4
2023-05-21T12:49:00.000Z,56.7
2023-05-21T12:50:00.000Z,58.5
2023-05-21T12:51:00.000Z,58.9
2023-05-21T12:52:00.000Z,59.8
2023-05-21T12:53:00.000Z,60.7
2023-05-21T12:54:00.000Z,61.8
2023-05-21T12:55:00.000Z,61.4
2023-05-21T12:56:00.000Z,60.6
2023-05-21T12:57:00.000Z,60.4
2023-05-21T12:58:00.000Z,59.8
2023-05-21T12:59:00.000Z,59.4
2023-05-21T13:00:00.000Z,58.6
2023-05-21T13:01:00.000Z,58.4
2023-05-21T13:02:00.000Z,58.9
2023-05-21T13:03:00.000Z,60.1
2023-05-21T13:04:00.000Z,59.8
2023-05-21T13:05:00.000Z,59.4
2023-05-21T13:06:00.000Z,59.8
2023-05-21T13:07:00.000Z,60.1
2023-05-21T13:08:00.000Z,60.0
2023-05-21T13:09:00.000Z,59.5
2023-05-21T13:10:00.000Z,59.0
2023-05-21T13:11:00.000Z,60.1
2023-05-21T13:12:00.000Z,61.1
2023-05-21T13:13:00.000Z,60.7
2023-05-21T13:14:00.000Z,61.2
2023-05-21T13:15:00.000Z,60.3
2023-05-21T13:16:00.000Z,60.1
2023-05-21T13:17:00.000Z,58.9
2023-05-21T13:18:00.000Z,57.5
2023-05-21T13:19:00.000Z,55.0
2023-05-21T13:20:00.000Z,52.3
2023-05-21T13:21:00.000Z,56.4
2023-05-21T13:22:00.000Z,59.3
2023-05-21T13:23:00.000Z,61.6
2023-05-21T13:24:00.000Z,61.1
2023-05-21T13:25:00.000Z,61.2
2023-05-21T13:26:00.000Z,61.7
2023-05-21T13:27:00.000Z,62.0
2023-05-21T13:28:00.000Z,62.7
2023-05-21T13:29:00.000Z,62.7
2023-05-21T13:30:00.000Z,63.1
2023-05-21T13:31:00.000Z,63.3
2023-05-21T13:32:00.000Z,64.0
2023-05-21T13:33:00.000Z,64.6
2023-05-21T13:34:00.000Z,64.4
2023-05-21T13:35:00.000Z,65.1
2023-05-21T13:36:00.000Z,65.5